Time;durP1;ratioP1;P1;durP2;ratioP2;P2;SDS_P1;SDS_P2;PMS_P1;PMS_P2;Temp;Humidity;BMP_temperature;BMP_pressure;BME280_temperature;BME280_humidity;BME280_pressure;Samples;Min_cycle;Max_cycle;Signal;HPM_P1;HPM_P2
2022/08/03 00:01:33;;;;;;;20.90;6.68;;;19.30;99.90;;;;;;5074868;28;20102;-72
2022/08/03 00:03:59;;;;;;;16.90;6.45;;;19.20;99.90;;;;;;5074850;28;20056;-71
2022/08/03 00:06:25;;;;;;;15.07;6.25;;;19.10;99.90;;;;;;5074611;28;20454;-71
2022/08/03 00:08:50;;;;;;;20.13;6.95;;;19.10;99.90;;;;;;5074511;28;20116;-74
2022/08/03 00:11:16;;;;;;;16.15;6.05;;;19.10;99.90;;;;;;5074786;28;20044;-71
2022/08/03 00:13:42;;;;;;;12.40;6.10;;;19.10;99.90;;;;;;5077183;28;20052;-73
2022/08/03 00:16:08;;;;;;;15.50;6.10;;;19.10;99.90;;;;;;5078541;28;20053;-71
2022/08/03 00:18:33;;;;;;;13.55;6.20;;;19.10;99.90;;;;;;5078201;28;20084;-70
2022/08/03 00:20:59;;;;;;;13.85;6.60;;;19.20;99.90;;;;;;5078444;28;20083;-72
2022/08/03 00:23:24;;;;;;;15.40;6.50;;;19.10;99.90;;;;;;5078234;28;20040;-73
2022/08/03 00:25:50;;;;;;;15.30;6.70;;;19.10;99.90;;;;;;5078621;28;20048;-73
2022/08/03 00:28:16;;;;;;;15.15;6.78;;;19.20;99.90;;;;;;5078409;28;20359;-70
2022/08/03 00:30:41;;;;;;;19.38;6.68;;;19.10;99.90;;;;;;5078143;28;20198;-71
2022/08/03 00:33:09;;;;;;;13.88;6.88;;;19.00;99.90;;;;;;5078107;28;20354;-71
2022/08/03 00:35:34;;;;;;;13.05;6.32;;;19.20;99.90;;;;;;5078204;28;20063;-71
2022/08/03 00:38:00;;;;;;;15.82;5.55;;;19.00;99.90;;;;;;5077774;28;20359;-72
2022/08/03 00:40:26;;;;;;;11.63;7.35;;;19.00;99.90;;;;;;5078049;28;20037;-70
2022/08/03 00:42:58;;;;;;;14.55;7.00;;;19.10;99.90;;;;;;5060567;28;20044;-72
2022/08/03 00:45:26;;;;;;;17.17;7.25;;;19.10;99.90;;;;;;5077892;28;20102;-73
2022/08/03 00:47:53;;;;;;;14.75;6.47;;;19.00;99.90;;;;;;5060633;28;20063;-73
2022/08/03 00:50:21;;;;;;;17.98;5.93;;;19.10;99.90;;;;;;5077762;28;20045;-72
2022/08/03 00:52:48;;;;;;;14.55;6.20;;;19.10;99.90;;;;;;5077778;28;20040;-73
2022/08/03 00:55:14;;;;;;;19.80;6.20;;;18.90;99.90;;;;;;5078002;28;20343;-73
2022/08/03 00:57:41;;;;;;;15.23;5.95;;;19.00;99.90;;;;;;5077626;28;20447;-73
2022/08/03 01:00:09;;;;;;;18.90;6.88;;;19.00;99.90;;;;;;5077617;28;20048;-73
2022/08/03 01:02:38;;;;;;;11.40;6.20;;;19.00;99.90;;;;;;5077588;28;20080;-72
2022/08/03 01:05:03;;;;;;;19.02;6.93;;;19.00;99.90;;;;;;5077487;28;20049;-70
2022/08/03 01:07:36;;;;;;;15.73;6.45;;;18.90;99.90;;;;;;5077607;28;20055;-72
2022/08/03 01:10:24;;;;;;;15.07;6.28;;;18.90;99.90;;;;;;5077178;28;20059;-73
2022/08/03 01:13:10;;;;;;;21.42;6.72;;;19.00;99.90;;;;;;5077087;28;20489;-71
2022/08/03 01:15:53;;;;;;;18.23;6.22;;;18.90;99.90;;;;;;5077447;28;20109;-70
2022/08/03 01:18:35;;;;;;;14.07;5.72;;;19.00;99.90;;;;;;5059501;28;20071;-71
2022/08/03 01:21:11;;;;;;;12.52;5.85;;;18.90;99.90;;;;;;5059917;28;20059;-70
2022/08/03 01:23:36;;;;;;;17.50;6.25;;;19.00;99.90;;;;;;5059087;28;20092;-73
2022/08/03 01:26:29;;;;;;;18.40;6.40;;;18.90;99.90;;;;;;5077113;28;20115;-72
2022/08/03 01:29:21;;;;;;;17.63;6.20;;;18.90;99.90;;;;;;5077253;28;20041;-70
2022/08/03 01:31:54;;;;;;;12.98;5.70;;;18.90;99.90;;;;;;5077002;28;20044;-72
2022/08/03 01:34:22;;;;;;;14.45;5.95;;;18.90;99.90;;;;;;5077117;28;20103;-72
2022/08/03 01:36:55;;;;;;;13.90;6.00;;;18.90;99.90;;;;;;5059558;28;20048;-70
2022/08/03 01:39:22;;;;;;;16.65;6.18;;;18.90;99.90;;;;;;5076788;28;20097;-70
2022/08/03 01:41:52;;;;;;;19.42;6.15;;;18.80;99.90;;;;;;5076887;28;20059;-72
2022/08/03 01:44:21;;;;;;;18.70;6.05;;;18.90;99.90;;;;;;5076925;28;20064;-73
2022/08/03 01:46:50;;;;;;;17.35;5.78;;;18.90;99.90;;;;;;5077164;28;20413;-71
2022/08/03 01:49:17;;;;;;;15.93;6.03;;;18.90;99.90;;;;;;5076866;28;20044;-74
2022/08/03 01:51:46;;;;;;;14.27;6.10;;;18.80;99.90;;;;;;5076879;28;20101;-72
2022/08/03 01:54:12;;;;;;;15.38;5.68;;;18.90;99.90;;;;;;5076646;28;20049;-73
2022/08/03 01:56:39;;;;;;;20.00;6.13;;;18.80;99.90;;;;;;5076457;28;20090;-74
2022/08/03 01:59:07;;;;;;;15.52;5.60;;;18.80;99.90;;;;;;5076569;28;20056;-72
2022/08/03 02:01:34;;;;;;;17.20;6.30;;;18.90;99.90;;;;;;5076493;28;20374;-70
2022/08/03 02:04:01;;;;;;;16.65;5.65;;;18.90;99.90;;;;;;5076588;28;20044;-72
2022/08/03 02:06:30;;;;;;;17.75;5.85;;;18.90;99.90;;;;;;5075907;28;20114;-73
2022/08/03 02:08:58;;;;;;;14.73;5.50;;;18.90;99.90;;;;;;5076177;28;20114;-71
2022/08/03 02:11:24;;;;;;;16.80;6.28;;;18.90;99.90;;;;;;5076380;28;20117;-72
2022/08/03 02:13:50;;;;;;;17.80;5.68;;;18.90;99.90;;;;;;5076221;28;20036;-72
2022/08/03 02:16:17;;;;;;;15.93;5.93;;;18.80;99.90;;;;;;5076636;28;20408;-71
2022/08/03 02:18:44;;;;;;;15.68;6.30;;;18.90;99.90;;;;;;5076082;28;20049;-72
2022/08/03 02:21:12;;;;;;;15.52;5.88;;;18.80;99.90;;;;;;5076147;28;20316;-73
2022/08/03 02:23:39;;;;;;;16.92;6.90;;;18.70;99.90;;;;;;5058641;28;20042;-70
2022/08/03 02:26:11;;;;;;;16.55;5.80;;;18.80;99.90;;;;;;5075868;28;20040;-72
2022/08/03 02:28:44;;;;;;;17.50;6.18;;;18.70;99.90;;;;;;5075921;28;20040;-72
2022/08/03 02:31:16;;;;;;;15.10;5.72;;;18.70;99.90;;;;;;5075934;28;20055;-71
2022/08/03 02:33:47;;;;;;;14.25;6.00;;;18.60;99.90;;;;;;5075866;28;20443;-74
2022/08/03 02:36:15;;;;;;;21.42;6.40;;;18.80;99.90;;;;;;5075010;28;20047;-70
2022/08/03 02:38:43;;;;;;;16.42;6.30;;;18.80;99.90;;;;;;5075669;28;20048;-72
2022/08/03 02:41:15;;;;;;;16.65;5.55;;;18.70;99.90;;;;;;5075873;28;20044;-71
2022/08/03 02:43:44;;;;;;;19.10;6.93;;;18.70;99.90;;;;;;5075646;28;20169;-73
2022/08/03 02:46:13;;;;;;;14.77;6.15;;;18.60;99.90;;;;;;5075745;28;20044;-70
2022/08/03 02:48:40;;;;;;;19.23;5.90;;;18.70;99.90;;;;;;5075237;28;20465;-73
2022/08/03 02:51:06;;;;;;;19.90;6.18;;;18.70;99.90;;;;;;5058056;28;20063;-70
2022/08/03 02:53:33;;;;;;;19.92;7.20;;;18.70;99.90;;;;;;5075294;28;20355;-71
2022/08/03 02:56:01;;;;;;;19.13;6.45;;;18.60;99.90;;;;;;5075506;28;20051;-71
2022/08/03 02:58:29;;;;;;;13.30;7.10;;;18.60;99.90;;;;;;5075583;28;20118;-72
2022/08/03 03:00:55;;;;;;;20.88;6.32;;;18.70;99.90;;;;;;5075280;28;20071;-71
2022/08/03 03:03:21;;;;;;;12.48;6.28;;;18.70;99.90;;;;;;5075289;28;20087;-72
2022/08/03 03:05:48;;;;;;;14.65;6.60;;;18.60;99.90;;;;;;5075161;28;20040;-73
2022/08/03 03:08:17;;;;;;;18.40;6.15;;;18.70;99.90;;;;;;5075473;28;20051;-70
2022/08/03 03:10:43;;;;;;;16.20;6.22;;;18.70;99.90;;;;;;5057910;28;20135;-71
2022/08/03 03:13:09;;;;;;;12.02;5.88;;;18.60;99.90;;;;;;5057419;28;20045;-72
2022/08/03 03:15:38;;;;;;;14.75;5.07;;;18.60;99.90;;;;;;5057728;28;20478;-73
2022/08/03 03:18:05;;;;;;;18.58;6.10;;;18.60;99.90;;;;;;5075017;28;20106;-70
2022/08/03 03:20:34;;;;;;;16.95;7.40;;;18.60;99.90;;;;;;5075117;28;20036;-73
2022/08/03 03:23:00;;;;;;;16.95;6.22;;;18.60;99.90;;;;;;5075136;28;20056;-71
2022/08/03 03:25:29;;;;;;;19.83;6.88;;;18.60;99.90;;;;;;5075401;28;20048;-73
2022/08/03 03:27:55;;;;;;;12.15;6.00;;;18.60;99.90;;;;;;5075089;28;20115;-70
2022/08/03 03:30:21;;;;;;;16.45;6.85;;;18.60;99.90;;;;;;5074757;28;20094;-71
2022/08/03 03:32:47;;;;;;;17.10;5.95;;;18.80;99.90;;;;;;5075059;28;20044;-72
2022/08/03 03:35:14;;;;;;;11.60;6.15;;;18.70;99.90;;;;;;5075201;28;20058;-73
2022/08/03 03:37:39;;;;;;;13.45;5.97;;;18.60;99.90;;;;;;5074903;28;20063;-73
2022/08/03 03:40:07;;;;;;;13.80;6.35;;;18.60;99.90;;;;;;5075070;28;20049;-73
2022/08/03 03:42:33;;;;;;;17.13;6.25;;;18.70;99.90;;;;;;5074810;28;20049;-70
2022/08/03 03:45:02;;;;;;;17.02;6.22;;;18.80;99.90;;;;;;5074746;28;20319;-72
2022/08/03 03:47:28;;;;;;;15.80;6.07;;;18.60;99.90;;;;;;5077332;28;20052;-70
2022/08/03 03:49:55;;;;;;;19.42;6.32;;;18.70;99.90;;;;;;5061154;28;20063;-73
2022/08/03 03:52:21;;;;;;;16.27;6.65;;;18.70;99.90;;;;;;5079166;28;20036;-73
2022/08/03 03:54:46;;;;;;;14.68;6.72;;;18.60;99.90;;;;;;5078915;28;20485;-72
2022/08/03 03:57:12;;;;;;;23.73;6.25;;;18.70;99.90;;;;;;5078818;28;20125;-71
2022/08/03 03:59:41;;;;;;;21.63;6.00;;;18.70;99.90;;;;;;5078548;28;20084;-70
2022/08/03 04:02:08;;;;;;;18.80;6.65;;;18.60;99.90;;;;;;5079022;28;20052;-72
2022/08/03 04:13:08;;;;;;;21.63;6.18;;;18.60;99.90;;;;;;5078472;28;20040;-74
2022/08/03 04:15:36;;;;;;;13.48;6.13;;;18.70;99.90;;;;;;5078636;28;20459;-72
2022/08/03 04:18:03;;;;;;;19.70;6.82;;;18.60;99.90;;;;;;5078365;28;20059;-69
2022/08/03 04:20:34;;;;;;;20.00;6.13;;;18.60;99.90;;;;;;5078304;28;20048;-71
2022/08/03 04:23:01;;;;;;;15.27;6.35;;;18.70;99.90;;;;;;5078388;28;20052;-74
2022/08/03 04:25:29;;;;;;;15.27;6.13;;;18.60;99.90;;;;;;5078205;28;20048;-72
2022/08/03 04:27:59;;;;;;;21.38;6.03;;;18.70;99.90;;;;;;5078322;28;20183;-72
2022/08/03 04:30:30;;;;;;;20.60;7.55;;;18.70;99.90;;;;;;5078140;28;20075;-70
2022/08/03 04:32:57;;;;;;;19.02;6.72;;;18.70;99.90;;;;;;5077697;28;20474;-70
2022/08/03 04:35:30;;;;;;;20.02;5.60;;;18.70;99.90;;;;;;5078303;28;20106;-72
2022/08/03 04:37:59;;;;;;;15.65;5.57;;;18.80;99.90;;;;;;5078020;28;20158;-72
2022/08/03 04:40:32;;;;;;;19.13;7.32;;;18.70;99.90;;;;;;5078277;28;20050;-71
2022/08/03 04:42:58;;;;;;;21.63;6.30;;;18.80;99.90;;;;;;5077890;28;20360;-72
2022/08/03 04:45:26;;;;;;;15.32;5.85;;;18.80;99.90;;;;;;5077930;28;20143;-71
2022/08/03 04:47:53;;;;;;;20.15;6.35;;;18.70;99.90;;;;;;5077681;28;20402;-72
2022/08/03 04:50:19;;;;;;;22.83;6.25;;;18.70;99.90;;;;;;5077823;28;20048;-71
2022/08/03 04:52:44;;;;;;;19.98;6.43;;;18.80;99.90;;;;;;5077926;28;20040;-73
2022/08/03 04:55:10;;;;;;;15.23;5.97;;;18.80;99.90;;;;;;5077739;28;20413;-72
2022/08/03 04:57:35;;;;;;;11.98;5.97;;;18.80;99.90;;;;;;5059774;28;20362;-72
2022/08/03 05:00:02;;;;;;;19.77;5.95;;;18.90;99.90;;;;;;5076689;28;20060;-71
2022/08/03 05:02:28;;;;;;;23.15;6.22;;;18.90;99.90;;;;;;5077307;28;20683;-71
2022/08/03 05:04:53;;;;;;;13.02;5.68;;;18.90;99.90;;;;;;5077617;28;20044;-71
2022/08/03 05:07:19;;;;;;;23.10;7.60;;;18.90;99.90;;;;;;5060151;28;20339;-74
2022/08/03 05:09:45;;;;;;;23.30;5.95;;;18.90;99.90;;;;;;5077689;28;20382;-74
2022/08/03 05:12:10;;;;;;;25.67;6.80;;;18.90;99.90;;;;;;5077467;28;20087;-70
2022/08/03 05:14:37;;;;;;;19.45;6.22;;;19.00;99.90;;;;;;5077529;28;20079;-71
2022/08/03 05:17:07;;;;;;;19.38;6.47;;;19.00;99.90;;;;;;5077571;28;20049;-70
2022/08/03 05:19:32;;;;;;;20.02;5.15;;;19.10;99.90;;;;;;5076225;28;20076;-70
2022/08/03 05:21:58;;;;;;;22.98;6.05;;;19.10;99.90;;;;;;5077313;28;20138;-70
2022/08/03 05:24:24;;;;;;;16.42;6.68;;;19.10;99.90;;;;;;5077193;28;20128;-71
2022/08/03 05:26:49;;;;;;;20.73;5.82;;;19.10;99.90;;;;;;5059435;28;20101;-70
2022/08/03 05:29:15;;;;;;;18.30;5.75;;;19.10;99.90;;;;;;5076951;28;20363;-74
2022/08/03 05:31:40;;;;;;;18.50;5.68;;;19.20;99.90;;;;;;5077128;28;20453;-72
2022/08/03 05:34:06;;;;;;;21.98;6.28;;;19.10;99.90;;;;;;5077235;28;20378;-71
2022/08/03 05:36:31;;;;;;;19.63;5.82;;;19.30;99.90;;;;;;5077347;28;20041;-72
2022/08/03 05:38:57;;;;;;;21.35;7.20;;;19.30;99.90;;;;;;5076968;28;20460;-71
2022/08/03 05:41:22;;;;;;;17.90;5.70;;;19.20;99.90;;;;;;5076944;28;20055;-73
2022/08/03 05:43:48;;;;;;;18.77;6.18;;;19.20;99.90;;;;;;5059317;28;20048;-73
2022/08/03 05:46:14;;;;;;;24.95;7.07;;;19.40;99.90;;;;;;5076760;28;20037;-72
2022/08/03 05:48:41;;;;;;;16.42;6.35;;;19.40;99.90;;;;;;5076145;28;20125;-70
2022/08/03 05:51:09;;;;;;;21.17;6.47;;;19.30;99.90;;;;;;5058833;28;20462;-72
2022/08/03 05:53:36;;;;;;;20.00;7.15;;;19.30;99.90;;;;;;5058787;28;20106;-71
2022/08/03 05:56:02;;;;;;;25.52;6.55;;;19.40;99.90;;;;;;5076520;28;20037;-72
2022/08/03 05:58:28;;;;;;;22.90;6.68;;;19.40;99.90;;;;;;5058850;28;20052;-72
2022/08/03 06:00:54;;;;;;;25.23;6.38;;;19.40;99.90;;;;;;5075572;28;20060;-73
2022/08/03 06:03:19;;;;;;;20.70;6.50;;;19.60;99.90;;;;;;5076495;28;20446;-71
2022/08/03 06:05:45;;;;;;;15.77;5.88;;;19.60;99.90;;;;;;5076419;28;20089;-72
2022/08/03 06:08:11;;;;;;;23.88;6.28;;;19.60;99.90;;;;;;5058559;28;20060;-70
2022/08/03 06:10:37;;;;;;;24.75;5.75;;;19.80;99.90;;;;;;5057618;28;20454;-72
2022/08/03 06:13:02;;;;;;;20.65;7.38;;;19.70;99.90;;;;;;5076222;28;20385;-71
2022/08/03 06:15:28;;;;;;;26.23;7.47;;;19.90;99.90;;;;;;5076096;28;20451;-72
2022/08/03 06:17:55;;;;;;;22.73;6.50;;;19.90;99.90;;;;;;5075997;28;20055;-72
2022/08/03 06:20:21;;;;;;;22.88;5.93;;;20.00;99.90;;;;;;5075574;28;20494;-72
2022/08/03 06:22:47;;;;;;;24.27;6.93;;;20.10;99.90;;;;;;5076081;28;20041;-71
2022/08/03 06:25:13;;;;;;;22.00;6.88;;;19.90;99.90;;;;;;5075916;28;20573;-71
2022/08/03 06:27:39;;;;;;;22.48;6.35;;;20.10;99.90;;;;;;5076049;28;20123;-71
2022/08/03 06:30:10;;;;;;;19.50;6.85;;;20.00;99.90;;;;;;5075621;28;20470;-74
2022/08/03 06:32:39;;;;;;;18.42;6.05;;;20.20;99.90;;;;;;5076063;28;20316;-71
2022/08/03 06:35:06;;;;;;;21.48;6.65;;;20.30;99.90;;;;;;5075779;28;20056;-70
2022/08/03 06:37:41;;;;;;;20.33;6.15;;;20.40;99.90;;;;;;5075720;28;20044;-73
2022/08/03 06:40:08;;;;;;;18.92;6.65;;;20.50;99.90;;;;;;5075700;28;20370;-73
2022/08/03 06:42:33;;;;;;;19.38;6.97;;;20.50;99.90;;;;;;5075541;28;20049;-72
2022/08/03 06:44:59;;;;;;;20.95;8.18;;;20.70;99.90;;;;;;5075561;28;20062;-72
2022/08/03 06:47:24;;;;;;;16.48;8.52;;;20.60;99.90;;;;;;5075542;28;20044;-73
2022/08/03 06:49:50;;;;;;;27.40;10.25;;;20.50;99.90;;;;;;5075741;28;20119;-70
2022/08/03 06:52:15;;;;;;;23.38;8.85;;;20.40;99.90;;;;;;5057995;28;20052;-72
2022/08/03 06:54:41;;;;;;;32.70;9.27;;;20.40;99.90;;;;;;5075427;28;20044;-72
2022/08/03 06:57:07;;;;;;;23.23;7.43;;;20.50;99.90;;;;;;5075441;28;20040;-72
2022/08/03 06:59:32;;;;;;;17.77;7.63;;;20.50;99.90;;;;;;5075356;28;20036;-71
2022/08/03 07:01:58;;;;;;;25.25;9.85;;;20.60;99.90;;;;;;5075509;28;20127;-73
2022/08/03 07:04:24;;;;;;;19.52;7.50;;;20.60;99.90;;;;;;5075444;28;20094;-73
2022/08/03 07:06:49;;;;;;;22.00;7.82;;;20.70;99.90;;;;;;5074307;28;20059;-74
2022/08/03 07:09:15;;;;;;;24.17;7.78;;;20.70;99.90;;;;;;5057746;28;20056;-72
2022/08/03 07:11:40;;;;;;;23.40;8.57;;;20.60;99.90;;;;;;5075259;28;20051;-73
2022/08/03 07:14:06;;;;;;;20.02;8.32;;;20.60;99.90;;;;;;5075337;28;20516;-73
2022/08/03 07:16:31;;;;;;;23.23;8.40;;;20.60;99.90;;;;;;5057648;28;20481;-73
2022/08/03 07:18:57;;;;;;;25.98;8.48;;;20.60;99.90;;;;;;5075226;28;20044;-73
2022/08/03 07:21:23;;;;;;;19.67;7.97;;;20.80;99.90;;;;;;5075034;28;20052;-73
2022/08/03 07:23:48;;;;;;;26.13;8.23;;;21.00;99.90;;;;;;5075222;28;20130;-73
2022/08/03 07:26:14;;;;;;;27.63;8.70;;;21.10;99.90;;;;;;5075163;28;20041;-74
2022/08/03 07:28:39;;;;;;;19.58;7.47;;;21.20;99.90;;;;;;5075241;28;20462;-71
2022/08/03 07:31:05;;;;;;;24.63;8.30;;;21.10;99.90;;;;;;5074965;28;20056;-70
2022/08/03 07:33:30;;;;;;;28.33;8.75;;;20.90;99.90;;;;;;5074942;28;20055;-70
2022/08/03 07:35:56;;;;;;;22.30;8.48;;;21.10;99.90;;;;;;5074540;28;20040;-71
2022/08/03 07:38:22;;;;;;;24.38;8.50;;;21.20;99.90;;;;;;5074911;28;20331;-73
2022/08/03 07:40:47;;;;;;;22.52;8.57;;;21.20;99.90;;;;;;5074863;28;20472;-73
2022/08/03 07:43:13;;;;;;;24.13;8.18;;;21.20;99.90;;;;;;5074745;28;20122;-73
2022/08/03 07:45:38;;;;;;;17.80;7.82;;;21.20;99.90;;;;;;5074972;28;20036;-72
2022/08/03 07:48:04;;;;;;;29.88;9.35;;;21.30;99.90;;;;;;5074984;28;20084;-72
2022/08/03 07:50:30;;;;;;;23.80;8.68;;;21.40;99.90;;;;;;5074815;28;20055;-73
2022/08/03 07:52:56;;;;;;;26.85;8.88;;;21.70;99.90;;;;;;5056947;28;20044;-70
2022/08/03 07:55:24;;;;;;;18.40;8.32;;;21.80;99.90;;;;;;5074552;28;20044;-71
2022/08/03 07:58:08;;;;;;;24.42;9.23;;;21.80;99.90;;;;;;5039442;28;20056;-72
2022/08/03 08:00:34;;;;;;;;;;;21.90;99.90;;;;;;5048755;28;20063;-73
2022/08/03 08:03:00;;;;;;;29.90;8.98;;;21.80;99.90;;;;;;5054842;28;19931;-75
2022/08/03 08:05:26;;;;;;;21.42;9.05;;;21.60;99.90;;;;;;5054702;28;20506;-73
2022/08/03 08:07:52;;;;;;;29.13;9.65;;;21.60;99.90;;;;;;5054346;28;20448;-72
2022/08/03 08:10:18;;;;;;;23.25;10.75;;;21.70;99.90;;;;;;5054378;28;20041;-72
2022/08/03 08:12:44;;;;;;;24.13;10.07;;;21.50;99.90;;;;;;5054738;28;20037;-72
2022/08/03 08:15:10;;;;;;;31.40;11.18;;;21.70;99.90;;;;;;5054781;28;20493;-74
2022/08/03 08:17:57;;;;;;;23.58;10.85;;;21.80;99.90;;;;;;5054637;28;20045;-72
2022/08/03 08:20:26;;;;;;;21.63;11.25;;;22.00;99.90;;;;;;5054302;28;20049;-74
2022/08/03 08:22:52;;;;;;;28.55;13.07;;;22.10;99.90;;;;;;5054444;28;20120;-72
2022/08/03 08:25:18;;;;;;;28.75;11.88;;;22.00;99.90;;;;;;5054582;28;20175;-73
2022/08/03 08:27:48;;;;;;;27.48;12.32;;;22.00;99.90;;;;;;5054564;28;20448;-71
2022/08/03 08:30:19;;;;;;;22.23;11.25;;;22.00;99.90;;;;;;5054449;28;20128;-73
2022/08/03 08:32:46;;;;;;;24.55;12.00;;;21.90;99.90;;;;;;5054177;28;20471;-73
2022/08/03 08:35:12;;;;;;;33.47;13.13;;;21.90;99.90;;;;;;5057655;28;20407;-73
2022/08/03 08:37:39;;;;;;;26.48;13.18;;;22.10;99.90;;;;;;5058021;28;20122;-73
2022/08/03 08:40:07;;;;;;;27.10;14.45;;;22.20;99.90;;;;;;5058158;28;20041;-72
2022/08/03 08:42:33;;;;;;;23.42;12.52;;;22.30;99.90;;;;;;5058003;28;20045;-73
2022/08/03 08:45:04;;;;;;;24.33;13.60;;;22.30;99.90;;;;;;5057897;28;20123;-74
2022/08/03 08:47:30;;;;;;;34.00;15.05;;;22.40;99.90;;;;;;5057735;28;20049;-74
2022/08/03 08:49:57;;;;;;;27.00;13.43;;;22.60;99.90;;;;;;5057770;28;20048;-73
2022/08/03 08:52:25;;;;;;;28.75;13.63;;;22.60;99.90;;;;;;5057779;28;20111;-73
2022/08/03 08:55:12;;;;;;;25.30;13.57;;;22.60;99.90;;;;;;5057722;28;20373;-71
2022/08/03 08:57:48;;;;;;;30.02;12.13;;;22.60;99.90;;;;;;5057590;28;20055;-73
2022/08/03 09:00:14;;;;;;;22.15;11.32;;;22.70;99.90;;;;;;5063587;28;20067;-75
2022/08/03 09:02:41;;;;;;;30.25;12.40;;;22.80;99.90;;;;;;5077662;28;20114;-73
2022/08/03 09:05:15;;;;;;;25.13;11.65;;;22.80;99.90;;;;;;5060245;28;20131;-72
2022/08/03 09:07:41;;;;;;;;;;;22.80;99.90;;;;;;5077933;28;20037;-75
2022/08/03 09:10:08;;;;;;;28.90;11.82;;;22.80;99.90;;;;;;5076647;28;19920;-74
2022/08/03 09:12:51;;;;;;;29.33;12.75;;;22.60;99.90;;;;;;5077450;28;20044;-73
2022/08/03 09:15:30;;;;;;;21.38;11.70;;;22.70;99.90;;;;;;5077597;28;20044;-73
2022/08/03 09:17:59;;;;;;;24.77;13.05;;;22.90;99.90;;;;;;5077490;28;20080;-74
2022/08/03 09:20:30;;;;;;;23.13;10.93;;;22.80;99.90;;;;;;5077286;28;20044;-75
2022/08/03 09:23:00;;;;;;;27.20;11.82;;;23.10;99.90;;;;;;5077338;28;20040;-71
2022/08/03 09:25:30;;;;;;;25.35;12.30;;;23.00;99.90;;;;;;5077212;28;20048;-73
2022/08/03 09:28:09;;;;;;;29.23;13.15;;;23.00;99.90;;;;;;5077029;28;20439;-75
2022/08/03 09:30:37;;;;;;;27.33;12.38;;;23.00;99.90;;;;;;5077332;28;20055;-72
2022/08/03 09:33:11;;;;;;;30.88;13.55;;;23.10;99.90;;;;;;5077076;28;20086;-75
2022/08/03 09:35:45;;;;;;;18.27;11.95;;;23.30;99.90;;;;;;5059452;28;20048;-71
2022/08/03 09:38:16;;;;;;;29.27;13.23;;;23.30;99.90;;;;;;5076823;28;20036;-71
2022/08/03 09:40:43;;;;;;;28.58;12.50;;;23.30;99.90;;;;;;5076716;28;20059;-73
2022/08/03 09:43:09;;;;;;;30.55;11.63;;;23.20;99.90;;;;;;5077058;28;20075;-72
2022/08/03 09:45:39;;;;;;;24.38;13.10;;;23.20;99.90;;;;;;5076566;28;20036;-74
2022/08/03 09:48:22;;;;;;;33.80;13.40;;;23.10;99.90;;;;;;5076762;28;20095;-71
2022/08/03 09:51:05;;;;;;;26.08;11.60;;;23.00;99.90;;;;;;5076499;28;20446;-74
2022/08/03 09:53:30;;;;;;;30.35;13.50;;;23.00;99.90;;;;;;5076870;28;20098;-74
2022/08/03 09:55:58;;;;;;;27.80;13.15;;;23.10;99.90;;;;;;5076569;28;20454;-74
2022/08/03 09:58:25;;;;;;;28.90;14.90;;;23.20;99.90;;;;;;5076120;28;20053;-72
2022/08/03 10:00:53;;;;;;;30.77;13.48;;;23.30;99.90;;;;;;5076351;28;20063;-72
2022/08/03 10:03:19;;;;;;;33.28;13.43;;;23.30;99.90;;;;;;5076465;28;20052;-72
2022/08/03 10:05:44;;;;;;;28.17;13.13;;;23.30;99.90;;;;;;5076475;28;20522;-76
2022/08/03 10:08:18;;;;;;;26.42;12.27;;;23.50;99.90;;;;;;5076037;28;20052;-74
2022/08/03 10:10:45;;;;;;;23.10;12.45;;;23.40;99.90;;;;;;5076414;28;20147;-72
2022/08/03 10:13:13;;;;;;;32.38;14.02;;;23.30;99.90;;;;;;5076187;28;20182;-74
2022/08/03 10:15:39;;;;;;;32.50;12.40;;;23.50;99.90;;;;;;5076032;28;20439;-71
2022/08/03 10:18:06;;;;;;;24.70;10.95;;;23.60;99.90;;;;;;5076048;28;20032;-71
2022/08/03 10:20:44;;;;;;;27.48;12.13;;;23.70;99.90;;;;;;5076230;28;20055;-73
2022/08/03 10:23:10;;;;;;;23.85;11.75;;;23.80;99.90;;;;;;5076127;28;20118;-72
2022/08/03 10:25:39;;;;;;;37.35;13.98;;;23.70;99.90;;;;;;5075766;28;20036;-74
2022/08/03 10:28:06;;;;;;;29.45;11.93;;;23.50;99.90;;;;;;5076336;28;20094;-74
2022/08/03 10:30:33;;;;;;;31.10;11.68;;;23.70;99.90;;;;;;5075570;28;20040;-74
2022/08/03 10:33:07;;;;;;;31.20;13.00;;;23.70;99.90;;;;;;5075708;28;20474;-75
2022/08/03 10:35:34;;;;;;;;;;;23.80;99.90;;;;;;5076283;28;20131;-74
2022/08/03 10:38:06;;;;;;;29.70;12.88;;;23.80;99.90;;;;;;5075527;28;19979;-71
2022/08/03 10:40:36;;;;;;;31.88;12.75;;;23.70;99.90;;;;;;5075694;28;20056;-73
2022/08/03 10:43:21;;;;;;;30.52;13.00;;;23.80;99.90;;;;;;5075686;28;20047;-75
2022/08/03 10:45:48;;;;;;;29.70;12.05;;;23.90;99.90;;;;;;5075667;28;20036;-73
2022/08/03 10:48:15;;;;;;;32.15;11.82;;;23.90;99.90;;;;;;5075736;28;20140;-74
2022/08/03 10:50:42;;;;;;;30.52;12.60;;;23.70;99.90;;;;;;5075552;28;20074;-74
2022/08/03 10:53:07;;;;;;;29.25;12.93;;;23.90;99.90;;;;;;5074529;28;20114;-74
2022/08/03 10:58:37;;;;;;;22.50;10.93;;;23.90;99.90;;;;;;5075305;28;20048;-72
2022/08/03 11:01:08;;;;;;;19.42;10.88;;;23.90;99.90;;;;;;5075171;28;20454;-75
2022/08/03 11:03:53;;;;;;;29.60;11.48;;;24.00;99.90;;;;;;5075347;28;20194;-72
2022/08/03 11:06:24;;;;;;;22.92;11.57;;;24.10;99.90;;;;;;5075412;28;20052;-74
2022/08/03 11:09:08;;;;;;;29.20;12.35;;;24.10;99.90;;;;;;5075226;28;20044;-73
2022/08/03 11:11:35;;;;;;;31.60;11.23;;;24.00;99.90;;;;;;5075191;28;20095;-75
2022/08/03 11:14:06;;;;;;;36.05;12.27;;;24.00;99.90;;;;;;5075234;28;20048;-72
2022/08/03 11:16:34;;;;;;;24.38;11.63;;;24.10;99.90;;;;;;5075488;28;20054;-73
2022/08/03 11:19:05;;;;;;;26.85;12.38;;;24.20;99.90;;;;;;5075102;28;20351;-75
2022/08/03 11:21:52;;;;;;;21.02;10.15;;;24.00;99.90;;;;;;5075118;28;20099;-73
2022/08/03 11:24:36;;;;;;;30.52;12.15;;;24.10;99.90;;;;;;5075239;28;20056;-73
2022/08/03 11:27:14;;;;;;;28.98;10.30;;;24.20;99.90;;;;;;5075049;28;20053;-72
2022/08/03 11:30:08;;;;;;;25.70;10.07;;;24.20;99.90;;;;;;5075149;28;20416;-75
2022/08/03 11:32:36;;;;;;;29.67;9.85;;;24.30;99.90;;;;;;5074858;28;20052;-72
2022/08/03 11:35:17;;;;;;;22.27;9.57;;;24.30;99.90;;;;;;5075158;28;20053;-75
2022/08/03 11:37:55;;;;;;;32.13;12.07;;;24.30;99.90;;;;;;5074945;28;20048;-74
2022/08/03 11:40:46;;;;;;;23.60;11.13;;;24.30;99.90;;;;;;5075010;28;20044;-71
2022/08/03 11:43:21;;;;;;;26.95;10.32;;;24.40;99.90;;;;;;5057343;28;20438;-74
2022/08/03 11:45:57;;;;;;;23.58;9.93;;;24.50;99.90;;;;;;5074937;28;20052;-72
2022/08/03 11:48:33;;;;;;;24.60;8.95;;;24.40;99.90;;;;;;5074984;28;20044;-72
2022/08/03 11:51:00;;;;;;;25.60;8.38;;;24.30;99.90;;;;;;5074756;28;20393;-71
2022/08/03 11:53:27;;;;;;;25.08;8.50;;;24.50;99.90;;;;;;5075024;28;20095;-75
2022/08/03 11:55:52;;;;;;;27.40;7.82;;;24.60;99.90;;;;;;5074694;28;20040;-76
2022/08/03 11:58:22;;;;;;;28.70;7.78;;;24.70;99.90;;;;;;5074937;28;20046;-72
2022/08/03 12:00:49;;;;;;;21.08;8.35;;;24.80;99.90;;;;;;5074898;28;20129;-73
2022/08/03 12:03:17;;;;;;;24.90;7.50;;;25.10;99.90;;;;;;5074782;28;20049;-73
2022/08/03 12:05:46;;;;;;;24.38;8.68;;;24.90;99.90;;;;;;5057292;28;20045;-71
2022/08/03 12:08:14;;;;;;;20.38;7.97;;;25.00;99.90;;;;;;5076578;28;20354;-73
2022/08/03 12:10:46;;;;;;;23.50;7.68;;;24.80;99.90;;;;;;5078677;28;20037;-74
2022/08/03 12:13:12;;;;;;;19.65;7.60;;;24.80;99.90;;;;;;5060798;28;20036;-72
2022/08/03 12:15:37;;;;;;;27.00;8.15;;;24.90;99.90;;;;;;5077899;28;20044;-75
2022/08/03 12:18:13;;;;;;;24.20;8.00;;;24.90;99.90;;;;;;5078173;28;20029;-74
2022/08/03 12:20:39;;;;;;;20.95;7.97;;;24.80;99.90;;;;;;5078284;28;20481;-74
2022/08/03 12:23:06;;;;;;;22.00;7.22;;;24.60;99.90;;;;;;5078382;28;20051;-72
2022/08/03 12:25:33;;;;;;;19.10;7.10;;;24.70;99.90;;;;;;5078273;28;20044;-73
2022/08/03 12:28:08;;;;;;;20.55;7.45;;;24.90;99.90;;;;;;5078174;28;20367;-75
2022/08/03 12:30:34;;;;;;;27.35;7.68;;;25.10;99.90;;;;;;5078398;28;20041;-74
2022/08/03 12:33:15;;;;;;;22.17;7.03;;;25.40;99.90;;;;;;5078068;28;20037;-74
2022/08/03 12:35:41;;;;;;;21.30;7.05;;;25.30;99.90;;;;;;5078323;28;20079;-76
2022/08/03 12:38:06;;;;;;;26.67;6.72;;;25.40;99.90;;;;;;5077898;28;20407;-73
2022/08/03 12:40:32;;;;;;;28.30;7.10;;;25.80;99.90;;;;;;5078065;28;20155;-73
2022/08/03 12:42:58;;;;;;;23.42;7.65;;;25.60;99.90;;;;;;5077812;28;20374;-73
2022/08/03 12:45:29;;;;;;;25.00;7.28;;;25.60;99.90;;;;;;5077734;28;20036;-72
2022/08/03 12:47:59;;;;;;;20.42;6.63;;;25.60;99.90;;;;;;5077978;28;20500;-70
2022/08/03 12:50:35;;;;;;;23.83;7.25;;;25.80;99.90;;;;;;5077983;28;20136;-73
2022/08/03 12:53:04;;;;;;;22.83;7.78;;;25.70;99.90;;;;;;5077968;28;20051;-73
2022/08/03 12:55:33;;;;;;;20.60;6.97;;;26.00;99.90;;;;;;5077699;28;20044;-75